sensor_id;sensor_type;location;lat;lon;timestamp;temperature;humidity
7720;DHT22;3902;49.474;8.616;2023-03-16T00:00:45;3.80;99.90
7720;DHT22;3902;49.474;8.616;2023-03-16T00:03:11;3.80;99.90
7720;DHT22;3902;49.474;8.616;2023-03-16T00:05:44;3.80;99.90
7720;DHT22;3902;49.474;8.616;2023-03-16T00:08:11;3.80;99.90
7720;DHT22;3902;49.474;8.616;2023-03-16T00:10:36;3.80;99.90
7720;DHT22;3902;49.474;8.616;2023-03-16T00:13:02;3.70;99.90
7720;DHT22;3902;49.474;8.616;2023-03-16T00:15:28;3.70;99.90
7720;DHT22;3902;49.474;8.616;2023-03-16T00:17:54;3.80;99.90
7720;DHT22;3902;49.474;8.616;2023-03-16T00:20:20;3.80;99.90
7720;DHT22;3902;49.474;8.616;2023-03-16T00:22:45;3.70;99.90
7720;DHT22;3902;49.474;8.616;2023-03-16T00:25:12;3.70;99.90
7720;DHT22;3902;49.474;8.616;2023-03-16T00:27:39;3.70;99.90
7720;DHT22;3902;49.474;8.616;2023-03-16T00:30:05;3.70;99.90
7720;DHT22;3902;49.474;8.616;2023-03-16T00:32:35;3.70;99.90
7720;DHT22;3902;49.474;8.616;2023-03-16T00:35:02;3.70;99.90
7720;DHT22;3902;49.474;8.616;2023-03-16T00:37:29;3.70;99.90
7720;DHT22;3902;49.474;8.616;2023-03-16T00:39:55;3.70;99.90
7720;DHT22;3902;49.474;8.616;2023-03-16T00:42:22;3.60;99.90
7720;DHT22;3902;49.474;8.616;2023-03-16T00:44:55;3.60;99.90
7720;DHT22;3902;49.474;8.616;2023-03-16T00:47:24;3.60;99.90
7720;DHT22;3902;49.474;8.616;2023-03-16T00:49:50;3.60;99.90
7720;DHT22;3902;49.474;8.616;2023-03-16T00:52:16;3.60;99.90
7720;DHT22;3902;49.474;8.616;2023-03-16T00:54:46;3.60;99.90
7720;DHT22;3902;49.474;8.616;2023-03-16T00:57:16;3.50;99.90
7720;DHT22;3902;49.474;8.616;2023-03-16T00:59:46;3.60;99.90
7720;DHT22;3902;49.474;8.616;2023-03-16T01:02:13;3.50;99.90
7720;DHT22;3902;49.474;8.616;2023-03-16T01:04:40;3.50;99.90
7720;DHT22;3902;49.474;8.616;2023-03-16T01:07:11;3.50;99.90
7720;DHT22;3902;49.474;8.616;2023-03-16T01:09:38;3.50;99.90
7720;DHT22;3902;49.474;8.616;2023-03-16T01:12:10;3.50;99.90
7720;DHT22;3902;49.474;8.616;2023-03-16T01:14:36;3.50;99.90
7720;DHT22;3902;49.474;8.616;2023-03-16T01:17:03;3.40;99.90
7720;DHT22;3902;49.474;8.616;2023-03-16T01:19:30;3.50;99.90
7720;DHT22;3902;49.474;8.616;2023-03-16T01:22:00;3.40;99.90
7720;DHT22;3902;49.474;8.616;2023-03-16T01:24:26;3.40;99.90
7720;DHT22;3902;49.474;8.616;2023-03-16T01:26:52;3.40;99.90
7720;DHT22;3902;49.474;8.616;2023-03-16T01:29:18;3.40;99.90
7720;DHT22;3902;49.474;8.616;2023-03-16T01:31:44;3.40;99.90
7720;DHT22;3902;49.474;8.616;2023-03-16T01:34:10;3.40;99.90
7720;DHT22;3902;49.474;8.616;2023-03-16T01:36:41;3.40;99.90
7720;DHT22;3902;49.474;8.616;2023-03-16T01:39:06;3.30;99.90
7720;DHT22;3902;49.474;8.616;2023-03-16T01:41:32;3.40;99.90
7720;DHT22;3902;49.474;8.616;2023-03-16T01:43:57;3.30;99.90
7720;DHT22;3902;49.474;8.616;2023-03-16T01:46:25;3.30;99.90
7720;DHT22;3902;49.474;8.616;2023-03-16T01:49:09;3.30;99.90
7720;DHT22;3902;49.474;8.616;2023-03-16T01:51:49;3.30;99.90
7720;DHT22;3902;49.474;8.616;2023-03-16T01:54:27;3.30;99.90
7720;DHT22;3902;49.474;8.616;2023-03-16T01:57:07;3.30;99.90
7720;DHT22;3902;49.474;8.616;2023-03-16T01:59:40;3.30;99.90
7720;DHT22;3902;49.474;8.616;2023-03-16T02:02:08;3.30;99.90
7720;DHT22;3902;49.474;8.616;2023-03-16T02:05:00;3.30;99.90
7720;DHT22;3902;49.474;8.616;2023-03-16T02:07:29;3.30;99.90
7720;DHT22;3902;49.474;8.616;2023-03-16T02:09:58;3.30;99.90
7720;DHT22;3902;49.474;8.616;2023-03-16T02:12:25;3.30;99.90
7720;DHT22;3902;49.474;8.616;2023-03-16T02:14:51;3.30;99.90
7720;DHT22;3902;49.474;8.616;2023-03-16T02:17:19;3.30;99.90
7720;DHT22;3902;49.474;8.616;2023-03-16T02:22:40;3.30;99.90
7720;DHT22;3902;49.474;8.616;2023-03-16T02:25:08;3.30;99.90
7720;DHT22;3902;49.474;8.616;2023-03-16T02:27:59;3.30;99.90
7720;DHT22;3902;49.474;8.616;2023-03-16T02:30:27;3.30;99.90
7720;DHT22;3902;49.474;8.616;2023-03-16T02:32:53;3.20;99.90
7720;DHT22;3902;49.474;8.616;2023-03-16T02:35:19;3.30;99.90
7720;DHT22;3902;49.474;8.616;2023-03-16T02:37:45;3.30;99.90
7720;DHT22;3902;49.474;8.616;2023-03-16T02:40:23;3.30;99.90
7720;DHT22;3902;49.474;8.616;2023-03-16T02:43:03;3.30;99.90
7720;DHT22;3902;49.474;8.616;2023-03-16T02:45:40;3.30;99.90
7720;DHT22;3902;49.474;8.616;2023-03-16T02:49:00;3.30;99.90
7720;DHT22;3902;49.474;8.616;2023-03-16T02:51:07;3.30;99.90
7720;DHT22;3902;49.474;8.616;2023-03-16T02:53:33;3.30;99.90
7720;DHT22;3902;49.474;8.616;2023-03-16T02:55:58;3.30;99.90
7720;DHT22;3902;49.474;8.616;2023-03-16T02:58:24;3.30;99.90
7720;DHT22;3902;49.474;8.616;2023-03-16T03:00:49;3.30;99.90
7720;DHT22;3902;49.474;8.616;2023-03-16T03:03:15;3.30;99.90
7720;DHT22;3902;49.474;8.616;2023-03-16T03:05:41;3.30;99.90
7720;DHT22;3902;49.474;8.616;2023-03-16T03:08:06;3.30;99.90
7720;DHT22;3902;49.474;8.616;2023-03-16T03:10:32;3.30;99.90
7720;DHT22;3902;49.474;8.616;2023-03-16T03:12:58;3.20;99.90
7720;DHT22;3902;49.474;8.616;2023-03-16T03:15:24;3.20;99.90
7720;DHT22;3902;49.474;8.616;2023-03-16T03:17:49;3.30;99.90
7720;DHT22;3902;49.474;8.616;2023-03-16T03:20:15;3.20;99.90
7720;DHT22;3902;49.474;8.616;2023-03-16T03:22:41;3.30;99.90
7720;DHT22;3902;49.474;8.616;2023-03-16T03:25:09;3.20;99.90
7720;DHT22;3902;49.474;8.616;2023-03-16T03:27:37;3.30;99.90
7720;DHT22;3902;49.474;8.616;2023-03-16T03:30:03;3.30;99.90
7720;DHT22;3902;49.474;8.616;2023-03-16T03:32:29;3.30;99.90
7720;DHT22;3902;49.474;8.616;2023-03-16T03:34:54;3.20;99.90
7720;DHT22;3902;49.474;8.616;2023-03-16T03:37:20;3.30;99.90
7720;DHT22;3902;49.474;8.616;2023-03-16T03:39:45;3.30;99.90
7720;DHT22;3902;49.474;8.616;2023-03-16T03:42:12;3.20;99.90
7720;DHT22;3902;49.474;8.616;2023-03-16T03:44:38;3.20;99.90
7720;DHT22;3902;49.474;8.616;2023-03-16T03:47:04;3.20;99.90
7720;DHT22;3902;49.474;8.616;2023-03-16T03:49:30;3.20;99.90
7720;DHT22;3902;49.474;8.616;2023-03-16T03:51:56;3.20;99.90
7720;DHT22;3902;49.474;8.616;2023-03-16T03:54:23;3.20;99.90
7720;DHT22;3902;49.474;8.616;2023-03-16T03:56:50;3.20;99.90
7720;DHT22;3902;49.474;8.616;2023-03-16T03:59:16;3.20;99.90
7720;DHT22;3902;49.474;8.616;2023-03-16T04:01:42;3.20;99.90
7720;DHT22;3902;49.474;8.616;2023-03-16T04:04:07;3.20;99.90
7720;DHT22;3902;49.474;8.616;2023-03-16T04:06:33;3.20;99.90
7720;DHT22;3902;49.474;8.616;2023-03-16T04:08:58;3.20;99.90
7720;DHT22;3902;49.474;8.616;2023-03-16T04:11:24;3.10;99.90
7720;DHT22;3902;49.474;8.616;2023-03-16T04:13:51;3.10;99.90
7720;DHT22;3902;49.474;8.616;2023-03-16T04:16:18;3.20;99.90
7720;DHT22;3902;49.474;8.616;2023-03-16T04:18:44;3.20;99.90
7720;DHT22;3902;49.474;8.616;2023-03-16T04:21:15;3.20;99.90
7720;DHT22;3902;49.474;8.616;2023-03-16T04:23:42;3.10;99.90
7720;DHT22;3902;49.474;8.616;2023-03-16T04:26:08;3.10;99.90
7720;DHT22;3902;49.474;8.616;2023-03-16T04:28:34;3.10;99.90
7720;DHT22;3902;49.474;8.616;2023-03-16T04:31:04;3.10;99.90
7720;DHT22;3902;49.474;8.616;2023-03-16T04:33:34;3.10;99.90
7720;DHT22;3902;49.474;8.616;2023-03-16T04:36:00;3.10;99.90
7720;DHT22;3902;49.474;8.616;2023-03-16T04:38:27;3.10;99.90
7720;DHT22;3902;49.474;8.616;2023-03-16T04:40:54;3.10;99.90
7720;DHT22;3902;49.474;8.616;2023-03-16T04:43:19;3.20;99.90
7720;DHT22;3902;49.474;8.616;2023-03-16T04:45:45;3.20;99.90
7720;DHT22;3902;49.474;8.616;2023-03-16T04:48:10;3.20;99.90
7720;DHT22;3902;49.474;8.616;2023-03-16T04:50:36;3.30;99.90
7720;DHT22;3902;49.474;8.616;2023-03-16T04:53:01;3.30;99.90
7720;DHT22;3902;49.474;8.616;2023-03-16T04:55:29;3.40;99.90
7720;DHT22;3902;49.474;8.616;2023-03-16T04:57:55;3.40;99.90
7720;DHT22;3902;49.474;8.616;2023-03-16T05:00:21;3.40;99.90
7720;DHT22;3902;49.474;8.616;2023-03-16T05:02:48;3.40;99.90
7720;DHT22;3902;49.474;8.616;2023-03-16T05:05:14;3.50;99.90
7720;DHT22;3902;49.474;8.616;2023-03-16T05:07:41;3.40;99.90
7720;DHT22;3902;49.474;8.616;2023-03-16T05:10:08;3.40;99.90
7720;DHT22;3902;49.474;8.616;2023-03-16T05:12:34;3.40;99.90
7720;DHT22;3902;49.474;8.616;2023-03-16T05:14:59;3.40;99.90
7720;DHT22;3902;49.474;8.616;2023-03-16T05:17:26;3.40;99.90
7720;DHT22;3902;49.474;8.616;2023-03-16T05:19:51;3.50;99.90
7720;DHT22;3902;49.474;8.616;2023-03-16T05:22:17;3.40;99.90
7720;DHT22;3902;49.474;8.616;2023-03-16T05:24:42;3.40;99.90
7720;DHT22;3902;49.474;8.616;2023-03-16T05:27:08;3.40;99.90
7720;DHT22;3902;49.474;8.616;2023-03-16T05:29:33;3.50;99.90
7720;DHT22;3902;49.474;8.616;2023-03-16T05:31:59;3.50;99.90
7720;DHT22;3902;49.474;8.616;2023-03-16T05:34:25;3.50;99.90
7720;DHT22;3902;49.474;8.616;2023-03-16T05:36:51;3.50;99.90
7720;DHT22;3902;49.474;8.616;2023-03-16T05:39:16;3.50;99.90
7720;DHT22;3902;49.474;8.616;2023-03-16T05:41:42;3.50;99.90
7720;DHT22;3902;49.474;8.616;2023-03-16T05:44:08;3.50;99.90
7720;DHT22;3902;49.474;8.616;2023-03-16T05:46:33;3.50;99.90
7720;DHT22;3902;49.474;8.616;2023-03-16T05:48:59;3.60;99.90
7720;DHT22;3902;49.474;8.616;2023-03-16T05:51:25;3.60;99.90
7720;DHT22;3902;49.474;8.616;2023-03-16T05:53:51;3.60;99.90
7720;DHT22;3902;49.474;8.616;2023-03-16T05:56:27;3.60;99.90
7720;DHT22;3902;49.474;8.616;2023-03-16T05:58:53;3.60;99.90
7720;DHT22;3902;49.474;8.616;2023-03-16T06:01:20;3.60;99.90
7720;DHT22;3902;49.474;8.616;2023-03-16T06:03:47;3.60;99.90
7720;DHT22;3902;49.474;8.616;2023-03-16T06:06:16;3.60;99.90
7720;DHT22;3902;49.474;8.616;2023-03-16T06:08:42;3.60;99.90
7720;DHT22;3902;49.474;8.616;2023-03-16T06:11:09;3.70;99.90
7720;DHT22;3902;49.474;8.616;2023-03-16T06:13:34;3.70;99.90
7720;DHT22;3902;49.474;8.616;2023-03-16T06:16:01;3.70;99.90
7720;DHT22;3902;49.474;8.616;2023-03-16T06:18:26;3.70;99.90
7720;DHT22;3902;49.474;8.616;2023-03-16T06:20:52;3.70;99.90
7720;DHT22;3902;49.474;8.616;2023-03-16T06:23:18;3.70;99.90
7720;DHT22;3902;49.474;8.616;2023-03-16T06:25:46;3.80;99.90
7720;DHT22;3902;49.474;8.616;2023-03-16T06:28:12;3.80;99.90
7720;DHT22;3902;49.474;8.616;2023-03-16T06:30:38;3.80;99.90
7720;DHT22;3902;49.474;8.616;2023-03-16T06:33:03;3.80;99.90
7720;DHT22;3902;49.474;8.616;2023-03-16T06:35:29;3.80;99.90
7720;DHT22;3902;49.474;8.616;2023-03-16T06:37:54;3.90;99.90
7720;DHT22;3902;49.474;8.616;2023-03-16T06:40:20;3.90;99.90
7720;DHT22;3902;49.474;8.616;2023-03-16T06:42:46;4.00;99.90
7720;DHT22;3902;49.474;8.616;2023-03-16T06:45:11;4.00;99.90
7720;DHT22;3902;49.474;8.616;2023-03-16T06:47:37;4.10;99.90
7720;DHT22;3902;49.474;8.616;2023-03-16T06:50:03;4.10;99.90
7720;DHT22;3902;49.474;8.616;2023-03-16T06:52:29;4.20;99.90
7720;DHT22;3902;49.474;8.616;2023-03-16T06:54:54;4.20;99.90
7720;DHT22;3902;49.474;8.616;2023-03-16T06:57:22;4.20;99.90
7720;DHT22;3902;49.474;8.616;2023-03-16T06:59:48;4.30;99.90
7720;DHT22;3902;49.474;8.616;2023-03-16T07:02:13;4.40;99.90
7720;DHT22;3902;49.474;8.616;2023-03-16T07:04:40;4.40;99.90
7720;DHT22;3902;49.474;8.616;2023-03-16T07:07:06;4.50;99.90
7720;DHT22;3902;49.474;8.616;2023-03-16T07:09:31;4.50;99.90
7720;DHT22;3902;49.474;8.616;2023-03-16T07:11:57;4.50;99.90
7720;DHT22;3902;49.474;8.616;2023-03-16T07:14:22;4.60;99.90
7720;DHT22;3902;49.474;8.616;2023-03-16T07:16:50;4.70;99.90
7720;DHT22;3902;49.474;8.616;2023-03-16T07:19:17;4.80;99.90
7720;DHT22;3902;49.474;8.616;2023-03-16T07:21:42;4.80;99.90
7720;DHT22;3902;49.474;8.616;2023-03-16T07:24:09;4.80;99.90
7720;DHT22;3902;49.474;8.616;2023-03-16T07:26:34;4.90;99.90
7720;DHT22;3902;49.474;8.616;2023-03-16T07:29:00;4.90;99.90
7720;DHT22;3902;49.474;8.616;2023-03-16T07:31:26;4.90;99.90
7720;DHT22;3902;49.474;8.616;2023-03-16T07:33:51;5.00;99.90
7720;DHT22;3902;49.474;8.616;2023-03-16T07:36:17;5.00;99.90
7720;DHT22;3902;49.474;8.616;2023-03-16T07:38:43;5.00;99.90
7720;DHT22;3902;49.474;8.616;2023-03-16T07:41:08;5.00;99.90
7720;DHT22;3902;49.474;8.616;2023-03-16T07:43:34;5.10;99.90
7720;DHT22;3902;49.474;8.616;2023-03-16T07:45:59;5.10;99.90
7720;DHT22;3902;49.474;8.616;2023-03-16T07:48:26;5.10;99.90
7720;DHT22;3902;49.474;8.616;2023-03-16T07:50:52;5.20;99.90
7720;DHT22;3902;49.474;8.616;2023-03-16T07:53:18;5.20;99.90
7720;DHT22;3902;49.474;8.616;2023-03-16T07:55:44;5.20;99.90
7720;DHT22;3902;49.474;8.616;2023-03-16T07:58:10;5.20;99.90
7720;DHT22;3902;49.474;8.616;2023-03-16T08:00:37;5.30;99.90
7720;DHT22;3902;49.474;8.616;2023-03-16T08:03:02;5.30;99.90
7720;DHT22;3902;49.474;8.616;2023-03-16T08:05:28;5.40;99.90
7720;DHT22;3902;49.474;8.616;2023-03-16T08:07:54;5.40;99.90
7720;DHT22;3902;49.474;8.616;2023-03-16T08:10:23;5.50;99.90
7720;DHT22;3902;49.474;8.616;2023-03-16T08:12:49;5.50;99.90
7720;DHT22;3902;49.474;8.616;2023-03-16T08:15:16;5.50;99.90
7720;DHT22;3902;49.474;8.616;2023-03-16T08:17:41;5.60;99.90
7720;DHT22;3902;49.474;8.616;2023-03-16T08:20:07;5.70;99.90
7720;DHT22;3902;49.474;8.616;2023-03-16T08:22:35;5.70;99.90
7720;DHT22;3902;49.474;8.616;2023-03-16T08:25:05;5.70;99.90
7720;DHT22;3902;49.474;8.616;2023-03-16T08:27:32;5.80;99.90
7720;DHT22;3902;49.474;8.616;2023-03-16T08:29:58;5.80;99.90
7720;DHT22;3902;49.474;8.616;2023-03-16T08:32:29;5.90;99.90
7720;DHT22;3902;49.474;8.616;2023-03-16T08:34:54;5.90;99.90
7720;DHT22;3902;49.474;8.616;2023-03-16T08:37:22;6.00;99.90
7720;DHT22;3902;49.474;8.616;2023-03-16T08:39:48;6.00;99.90
7720;DHT22;3902;49.474;8.616;2023-03-16T08:42:16;6.10;99.90
7720;DHT22;3902;49.474;8.616;2023-03-16T08:44:42;6.10;99.90
7720;DHT22;3902;49.474;8.616;2023-03-16T08:47:08;6.20;99.90
7720;DHT22;3902;49.474;8.616;2023-03-16T08:49:35;6.20;99.90
7720;DHT22;3902;49.474;8.616;2023-03-16T08:52:02;6.30;99.90
7720;DHT22;3902;49.474;8.616;2023-03-16T08:54:27;6.40;99.90
7720;DHT22;3902;49.474;8.616;2023-03-16T08:56:53;6.50;99.90
7720;DHT22;3902;49.474;8.616;2023-03-16T08:59:19;6.60;99.90
7720;DHT22;3902;49.474;8.616;2023-03-16T09:01:44;6.60;99.90
7720;DHT22;3902;49.474;8.616;2023-03-16T09:04:10;6.70;99.90
7720;DHT22;3902;49.474;8.616;2023-03-16T09:06:37;6.80;99.90
7720;DHT22;3902;49.474;8.616;2023-03-16T09:09:03;6.90;99.90
7720;DHT22;3902;49.474;8.616;2023-03-16T09:11:29;7.00;99.90
7720;DHT22;3902;49.474;8.616;2023-03-16T09:13:58;7.00;99.90
7720;DHT22;3902;49.474;8.616;2023-03-16T09:16:24;7.10;99.90
7720;DHT22;3902;49.474;8.616;2023-03-16T09:18:51;7.20;99.90
7720;DHT22;3902;49.474;8.616;2023-03-16T09:21:17;7.30;99.90
7720;DHT22;3902;49.474;8.616;2023-03-16T09:23:44;7.40;99.90
7720;DHT22;3902;49.474;8.616;2023-03-16T09:26:10;7.50;99.90
7720;DHT22;3902;49.474;8.616;2023-03-16T09:28:38;7.50;99.90
7720;DHT22;3902;49.474;8.616;2023-03-16T09:31:05;7.60;99.90
7720;DHT22;3902;49.474;8.616;2023-03-16T09:33:32;7.70;99.90
7720;DHT22;3902;49.474;8.616;2023-03-16T09:35:58;7.80;99.90
7720;DHT22;3902;49.474;8.616;2023-03-16T09:38:24;7.90;99.90
7720;DHT22;3902;49.474;8.616;2023-03-16T09:41:07;8.00;99.90
7720;DHT22;3902;49.474;8.616;2023-03-16T09:46:30;8.30;99.90
7720;DHT22;3902;49.474;8.616;2023-03-16T09:48:57;8.40;99.90
7720;DHT22;3902;49.474;8.616;2023-03-16T09:51:43;8.50;99.90
7720;DHT22;3902;49.474;8.616;2023-03-16T09:54:39;8.60;99.90
7720;DHT22;3902;49.474;8.616;2023-03-16T09:57:36;8.70;99.90
7720;DHT22;3902;49.474;8.616;2023-03-16T10:00:20;8.70;99.90
7720;DHT22;3902;49.474;8.616;2023-03-16T10:05:36;8.90;99.90
7720;DHT22;3902;49.474;8.616;2023-03-16T10:08:13;9.00;99.90
7720;DHT22;3902;49.474;8.616;2023-03-16T10:16:24;9.10;99.90
7720;DHT22;3902;49.474;8.616;2023-03-16T10:18:59;9.20;99.90
7720;DHT22;3902;49.474;8.616;2023-03-16T10:21:26;9.20;99.90
7720;DHT22;3902;49.474;8.616;2023-03-16T10:23:53;9.20;99.90
7720;DHT22;3902;49.474;8.616;2023-03-16T10:26:36;9.30;99.90
7720;DHT22;3902;49.474;8.616;2023-03-16T10:29:09;9.30;99.90
7720;DHT22;3902;49.474;8.616;2023-03-16T10:31:38;9.40;99.90
7720;DHT22;3902;49.474;8.616;2023-03-16T10:34:05;9.50;99.90
7720;DHT22;3902;49.474;8.616;2023-03-16T10:36:34;9.60;99.90
7720;DHT22;3902;49.474;8.616;2023-03-16T10:39:11;9.60;99.90
7720;DHT22;3902;49.474;8.616;2023-03-16T10:41:58;9.60;99.90
7720;DHT22;3902;49.474;8.616;2023-03-16T10:44:25;9.70;99.90
7720;DHT22;3902;49.474;8.616;2023-03-16T10:47:03;9.80;99.90
7720;DHT22;3902;49.474;8.616;2023-03-16T10:49:41;9.90;99.90
7720;DHT22;3902;49.474;8.616;2023-03-16T10:52:45;10.10;99.90
7720;DHT22;3902;49.474;8.616;2023-03-16T10:55:28;10.40;99.90
7720;DHT22;3902;49.474;8.616;2023-03-16T10:57:57;10.60;99.90
7720;DHT22;3902;49.474;8.616;2023-03-16T11:00:29;11.00;99.90
7720;DHT22;3902;49.474;8.616;2023-03-16T11:02:57;11.30;99.90
7720;DHT22;3902;49.474;8.616;2023-03-16T11:05:32;11.60;99.90
7720;DHT22;3902;49.474;8.616;2023-03-16T11:08:11;12.10;99.90
7720;DHT22;3902;49.474;8.616;2023-03-16T11:10:43;12.60;99.90
7720;DHT22;3902;49.474;8.616;2023-03-16T11:13:17;13.10;99.90
7720;DHT22;3902;49.474;8.616;2023-03-16T11:15:46;13.90;99.90
7720;DHT22;3902;49.474;8.616;2023-03-16T11:21:11;15.50;99.90
7720;DHT22;3902;49.474;8.616;2023-03-16T11:23:44;16.30;99.90
7720;DHT22;3902;49.474;8.616;2023-03-16T11:26:33;17.20;99.90
7720;DHT22;3902;49.474;8.616;2023-03-16T11:29:04;17.80;99.90
7720;DHT22;3902;49.474;8.616;2023-03-16T11:31:47;18.30;99.90
7720;DHT22;3902;49.474;8.616;2023-03-16T11:34:20;18.60;99.30
7720;DHT22;3902;49.474;8.616;2023-03-16T11:36:53;18.40;96.60
7720;DHT22;3902;49.474;8.616;2023-03-16T11:42:12;18.60;97.60
7720;DHT22;3902;49.474;8.616;2023-03-16T11:50:43;18.50;96.60
7720;DHT22;3902;49.474;8.616;2023-03-16T11:53:31;18.20;95.70
7720;DHT22;3902;49.474;8.616;2023-03-16T11:56:14;18.20;95.10
7720;DHT22;3902;49.474;8.616;2023-03-16T12:09:55;16.00;95.10
7720;DHT22;3902;49.474;8.616;2023-03-16T12:15:25;15.50;96.80
7720;DHT22;3902;49.474;8.616;2023-03-16T12:17:58;15.40;95.50
7720;DHT22;3902;49.474;8.616;2023-03-16T12:20:42;15.60;95.00
7720;DHT22;3902;49.474;8.616;2023-03-16T12:23:23;16.30;95.10
7720;DHT22;3902;49.474;8.616;2023-03-16T12:25:52;17.00;94.10
7720;DHT22;3902;49.474;8.616;2023-03-16T12:28:26;17.80;94.40
7720;DHT22;3902;49.474;8.616;2023-03-16T12:31:11;18.40;93.20
7720;DHT22;3902;49.474;8.616;2023-03-16T12:34:00;19.00;93.00
7720;DHT22;3902;49.474;8.616;2023-03-16T12:44:50;21.50;85.80
7720;DHT22;3902;49.474;8.616;2023-03-16T12:47:25;21.50;83.40
7720;DHT22;3902;49.474;8.616;2023-03-16T12:49:52;22.10;81.30
7720;DHT22;3902;49.474;8.616;2023-03-16T12:52:18;22.60;82.10
7720;DHT22;3902;49.474;8.616;2023-03-16T12:55:39;22.80;79.80
7720;DHT22;3902;49.474;8.616;2023-03-16T12:57:59;23.10;78.70
7720;DHT22;3902;49.474;8.616;2023-03-16T13:00:36;22.90;77.30
7720;DHT22;3902;49.474;8.616;2023-03-16T13:03:04;23.00;77.30
7720;DHT22;3902;49.474;8.616;2023-03-16T13:05:35;23.20;78.10
7720;DHT22;3902;49.474;8.616;2023-03-16T13:10:31;23.50;76.50
7720;DHT22;3902;49.474;8.616;2023-03-16T13:13:12;24.00;78.00
7720;DHT22;3902;49.474;8.616;2023-03-16T13:15:40;24.30;75.00
7720;DHT22;3902;49.474;8.616;2023-03-16T13:23:22;25.10;68.20
7720;DHT22;3902;49.474;8.616;2023-03-16T13:26:22;25.70;67.80
7720;DHT22;3902;49.474;8.616;2023-03-16T13:28:53;26.10;67.20
7720;DHT22;3902;49.474;8.616;2023-03-16T13:31:39;26.20;64.10
7720;DHT22;3902;49.474;8.616;2023-03-16T13:34:07;26.10;62.80
7720;DHT22;3902;49.474;8.616;2023-03-16T13:36:36;26.50;63.90
7720;DHT22;3902;49.474;8.616;2023-03-16T13:39:06;26.90;64.80
7720;DHT22;3902;49.474;8.616;2023-03-16T13:41:37;27.30;62.20
7720;DHT22;3902;49.474;8.616;2023-03-16T13:44:03;27.40;61.80
7720;DHT22;3902;49.474;8.616;2023-03-16T13:46:29;27.60;58.90
7720;DHT22;3902;49.474;8.616;2023-03-16T13:48:57;27.80;60.40
7720;DHT22;3902;49.474;8.616;2023-03-16T13:51:25;28.10;60.90
7720;DHT22;3902;49.474;8.616;2023-03-16T13:53:50;28.20;59.60
7720;DHT22;3902;49.474;8.616;2023-03-16T13:56:20;28.10;58.00
7720;DHT22;3902;49.474;8.616;2023-03-16T13:58:49;27.80;57.50
7720;DHT22;3902;49.474;8.616;2023-03-16T14:01:26;27.30;59.10
7720;DHT22;3902;49.474;8.616;2023-03-16T14:03:54;26.70;59.80
7720;DHT22;3902;49.474;8.616;2023-03-16T14:06:28;26.00;61.50
7720;DHT22;3902;49.474;8.616;2023-03-16T14:09:03;25.40;62.40
7720;DHT22;3902;49.474;8.616;2023-03-16T14:11:29;24.80;63.20
7720;DHT22;3902;49.474;8.616;2023-03-16T14:13:58;24.30;63.00
7720;DHT22;3902;49.474;8.616;2023-03-16T14:16:26;23.90;63.50
7720;DHT22;3902;49.474;8.616;2023-03-16T14:19:07;23.60;64.50
7720;DHT22;3902;49.474;8.616;2023-03-16T14:21:36;23.10;63.90
7720;DHT22;3902;49.474;8.616;2023-03-16T14:24:25;22.80;64.40
7720;DHT22;3902;49.474;8.616;2023-03-16T14:26:53;22.50;66.00
7720;DHT22;3902;49.474;8.616;2023-03-16T14:29:24;22.30;65.20
7720;DHT22;3902;49.474;8.616;2023-03-16T14:31:51;21.90;65.80
7720;DHT22;3902;49.474;8.616;2023-03-16T14:36:47;21.30;67.50
7720;DHT22;3902;49.474;8.616;2023-03-16T14:39:19;21.10;68.80
7720;DHT22;3902;49.474;8.616;2023-03-16T14:41:49;20.80;67.10
7720;DHT22;3902;49.474;8.616;2023-03-16T14:44:23;20.60;68.10
7720;DHT22;3902;49.474;8.616;2023-03-16T14:46:49;20.40;68.80
7720;DHT22;3902;49.474;8.616;2023-03-16T14:49:28;20.20;68.00
7720;DHT22;3902;49.474;8.616;2023-03-16T14:51:59;19.90;68.50
7720;DHT22;3902;49.474;8.616;2023-03-16T14:54:26;19.80;69.70
7720;DHT22;3902;49.474;8.616;2023-03-16T14:56:57;19.70;68.90
7720;DHT22;3902;49.474;8.616;2023-03-16T14:59:24;19.50;70.00
7720;DHT22;3902;49.474;8.616;2023-03-16T15:01:50;19.60;70.10
7720;DHT22;3902;49.474;8.616;2023-03-16T15:04:23;19.50;68.80
7720;DHT22;3902;49.474;8.616;2023-03-16T15:06:50;19.40;67.80
7720;DHT22;3902;49.474;8.616;2023-03-16T15:09:30;19.40;67.50
7720;DHT22;3902;49.474;8.616;2023-03-16T15:11:56;19.60;68.90
7720;DHT22;3902;49.474;8.616;2023-03-16T15:14:22;19.70;69.50
7720;DHT22;3902;49.474;8.616;2023-03-16T15:17:07;19.90;69.80
7720;DHT22;3902;49.474;8.616;2023-03-16T15:19:33;19.70;65.90
7720;DHT22;3902;49.474;8.616;2023-03-16T15:21:59;19.60;68.40
7720;DHT22;3902;49.474;8.616;2023-03-16T15:24:26;19.40;68.60
7720;DHT22;3902;49.474;8.616;2023-03-16T15:26:53;19.30;68.90
7720;DHT22;3902;49.474;8.616;2023-03-16T15:29:19;19.00;67.90
7720;DHT22;3902;49.474;8.616;2023-03-16T15:31:44;18.90;69.30
7720;DHT22;3902;49.474;8.616;2023-03-16T15:34:10;18.90;70.10
7720;DHT22;3902;49.474;8.616;2023-03-16T15:36:36;18.70;70.40
7720;DHT22;3902;49.474;8.616;2023-03-16T15:39:02;18.40;67.80
7720;DHT22;3902;49.474;8.616;2023-03-16T15:41:27;18.40;70.20
7720;DHT22;3902;49.474;8.616;2023-03-16T15:43:53;18.20;69.90
7720;DHT22;3902;49.474;8.616;2023-03-16T15:46:25;18.10;70.00
7720;DHT22;3902;49.474;8.616;2023-03-16T15:48:51;18.00;70.90
7720;DHT22;3902;49.474;8.616;2023-03-16T15:51:23;17.80;71.40
7720;DHT22;3902;49.474;8.616;2023-03-16T15:53:56;17.70;71.40
7720;DHT22;3902;49.474;8.616;2023-03-16T15:56:26;17.70;72.40
7720;DHT22;3902;49.474;8.616;2023-03-16T15:58:55;17.50;73.00
7720;DHT22;3902;49.474;8.616;2023-03-16T16:01:26;17.50;73.10
7720;DHT22;3902;49.474;8.616;2023-03-16T16:03:52;17.30;72.90
7720;DHT22;3902;49.474;8.616;2023-03-16T16:06:18;17.10;73.20
7720;DHT22;3902;49.474;8.616;2023-03-16T16:08:44;16.90;73.50
7720;DHT22;3902;49.474;8.616;2023-03-16T16:11:20;16.80;74.90
7720;DHT22;3902;49.474;8.616;2023-03-16T16:13:46;16.60;74.10
7720;DHT22;3902;49.474;8.616;2023-03-16T16:16:14;16.60;75.50
7720;DHT22;3902;49.474;8.616;2023-03-16T16:18:40;16.40;75.70
7720;DHT22;3902;49.474;8.616;2023-03-16T16:21:13;16.30;75.10
7720;DHT22;3902;49.474;8.616;2023-03-16T16:23:39;16.20;75.60
7720;DHT22;3902;49.474;8.616;2023-03-16T16:28:43;16.10;76.20
7720;DHT22;3902;49.474;8.616;2023-03-16T16:31:12;15.90;75.80
7720;DHT22;3902;49.474;8.616;2023-03-16T16:33:37;15.90;76.70
7720;DHT22;3902;49.474;8.616;2023-03-16T16:36:06;15.80;77.00
7720;DHT22;3902;49.474;8.616;2023-03-16T16:38:34;15.70;76.70
7720;DHT22;3902;49.474;8.616;2023-03-16T16:41:01;15.60;77.50
7720;DHT22;3902;49.474;8.616;2023-03-16T16:43:51;15.50;78.10
7720;DHT22;3902;49.474;8.616;2023-03-16T16:46:20;15.40;78.80
7720;DHT22;3902;49.474;8.616;2023-03-16T16:49:03;15.30;78.80
7720;DHT22;3902;49.474;8.616;2023-03-16T16:51:30;15.20;79.30
7720;DHT22;3902;49.474;8.616;2023-03-16T16:53:57;15.10;81.00
7720;DHT22;3902;49.474;8.616;2023-03-16T16:56:28;15.10;81.90
7720;DHT22;3902;49.474;8.616;2023-03-16T16:58:55;15.00;82.90
7720;DHT22;3902;49.474;8.616;2023-03-16T17:01:27;14.90;81.40
7720;DHT22;3902;49.474;8.616;2023-03-16T17:03:54;14.80;81.70
7720;DHT22;3902;49.474;8.616;2023-03-16T17:06:19;14.70;83.00
7720;DHT22;3902;49.474;8.616;2023-03-16T17:08:46;14.60;83.80
7720;DHT22;3902;49.474;8.616;2023-03-16T17:13:43;14.50;85.10
7720;DHT22;3902;49.474;8.616;2023-03-16T17:16:13;14.40;85.50
7720;DHT22;3902;49.474;8.616;2023-03-16T17:18:40;14.30;85.70
7720;DHT22;3902;49.474;8.616;2023-03-16T17:21:11;14.20;86.50
7720;DHT22;3902;49.474;8.616;2023-03-16T17:23:37;14.20;86.30
7720;DHT22;3902;49.474;8.616;2023-03-16T17:26:12;14.00;85.40
7720;DHT22;3902;49.474;8.616;2023-03-16T17:28:42;14.00;85.60